Time;durP1;ratioP1;P1;durP2;ratioP2;P2;SDS_P1;SDS_P2;PMS_P1;PMS_P2;Temp;Humidity;BMP_temperature;BMP_pressure;BME280_temperature;BME280_humidity;BME280_pressure;Samples;Min_cycle;Max_cycle;Signal;HPM_P1;HPM_P2
2022/05/22 00:02:09;;;;;;;28.52;11.27;;;11.50;99.90;;;;;;5035813;28;20022;-63
2022/05/22 00:04:36;;;;;;;20.98;9.70;;;11.40;99.90;;;;;;5042683;28;20125;-63
2022/05/22 00:07:02;;;;;;;21.00;8.85;;;11.40;99.90;;;;;;5053221;28;20021;-61
2022/05/22 00:09:28;;;;;;;24.13;10.35;;;11.40;99.90;;;;;;5037525;28;20358;-66
2022/05/22 00:11:54;;;;;;;24.52;10.55;;;11.40;99.90;;;;;;5033454;28;20088;-67
2022/05/22 00:14:21;;;;;;;22.05;9.55;;;11.40;99.90;;;;;;5046985;28;20029;-66
2022/05/22 00:16:47;;;;;;;27.15;9.15;;;11.30;99.90;;;;;;5052842;28;20025;-63
2022/05/22 00:19:16;;;;;;;29.25;10.82;;;11.30;99.90;;;;;;5039884;28;20466;-62
2022/05/22 00:21:42;;;;;;;20.63;9.65;;;11.30;99.90;;;;;;5039807;28;20020;-63
2022/05/22 00:24:10;;;;;;;23.98;10.27;;;11.30;99.90;;;;;;5052457;28;20059;-63
2022/05/22 00:26:35;;;;;;;30.55;10.30;;;11.30;99.90;;;;;;5051677;28;20029;-67
2022/05/22 00:29:01;;;;;;;32.47;11.40;;;11.20;99.90;;;;;;5042527;28;20450;-62
2022/05/22 00:31:27;;;;;;;29.73;9.98;;;11.20;99.90;;;;;;5033208;28;20050;-66
2022/05/22 00:33:53;;;;;;;28.85;11.32;;;11.30;99.90;;;;;;5032856;28;20030;-63
2022/05/22 00:36:18;;;;;;;27.77;11.02;;;11.30;99.90;;;;;;5032972;28;20123;-65
2022/05/22 00:38:44;;;;;;;36.08;11.02;;;11.40;99.90;;;;;;5044061;28;20036;-62
2022/05/22 00:41:11;;;;;;;27.20;10.95;;;11.40;99.90;;;;;;5051221;28;20064;-62
2022/05/22 00:43:37;;;;;;;29.52;10.55;;;11.40;99.90;;;;;;5047990;28;20033;-63
2022/05/22 00:46:06;;;;;;;26.48;10.57;;;11.40;99.90;;;;;;5032938;28;20104;-64
2022/05/22 00:48:33;;;;;;;29.98;10.40;;;11.40;99.90;;;;;;5032708;28;20144;-63
2022/05/22 00:51:10;;;;;;;28.08;10.18;;;11.40;99.90;;;;;;5032864;28;20060;-62
2022/05/22 00:53:41;;;;;;;26.40;9.75;;;11.40;99.90;;;;;;5031629;28;20029;-62
2022/05/22 00:56:10;;;;;;;31.92;9.93;;;11.40;99.90;;;;;;5040867;28;20025;-63
2022/05/22 00:58:36;;;;;;;30.15;11.35;;;11.50;99.90;;;;;;5051112;28;20322;-67
2022/05/22 01:01:05;;;;;;;26.02;10.68;;;11.50;99.90;;;;;;5041883;28;20394;-62
2022/05/22 01:03:31;;;;;;;27.42;9.60;;;11.50;99.90;;;;;;5032671;28;20148;-62
2022/05/22 01:06:01;;;;;;;28.58;9.55;;;11.60;99.90;;;;;;5033571;28;20525;-62
2022/05/22 01:08:27;;;;;;;25.42;9.85;;;11.60;99.90;;;;;;5040398;28;20028;-66
2022/05/22 01:11:00;;;;;;;29.02;11.55;;;11.70;99.90;;;;;;5045217;28;20017;-63
2022/05/22 01:13:30;;;;;;;19.83;8.48;;;11.70;99.90;;;;;;5040086;28;20021;-61
2022/05/22 01:15:56;;;;;;;27.15;8.15;;;11.70;99.90;;;;;;5032706;28;20044;-63
2022/05/22 01:18:21;;;;;;;21.15;8.15;;;11.70;99.90;;;;;;5046622;28;20033;-62
2022/05/22 01:20:49;;;;;;;24.45;9.60;;;11.60;99.90;;;;;;5050904;28;20056;-66
2022/05/22 01:23:16;;;;;;;23.73;8.63;;;11.60;99.90;;;;;;5032042;28;20057;-63
2022/05/22 01:25:42;;;;;;;21.35;8.52;;;11.60;99.90;;;;;;5031050;28;20025;-63
2022/05/22 01:28:10;;;;;;;22.88;8.98;;;11.70;99.90;;;;;;5030942;28;20037;-63
2022/05/22 01:30:36;;;;;;;24.88;8.77;;;11.60;99.90;;;;;;5044075;28;20053;-65
2022/05/22 01:33:02;;;;;;;19.75;8.32;;;11.60;99.90;;;;;;5051277;28;20445;-62
2022/05/22 01:35:28;;;;;;;24.10;8.07;;;11.60;99.90;;;;;;5041269;28;20380;-62
2022/05/22 01:37:55;;;;;;;22.92;9.10;;;11.60;99.90;;;;;;5048280;28;20029;-66
2022/05/22 01:40:21;;;;;;;23.77;8.98;;;11.60;99.90;;;;;;5043670;28;20033;-62
2022/05/22 01:42:47;;;;;;;23.40;8.88;;;11.60;99.90;;;;;;5032142;28;20038;-62
2022/05/22 01:45:18;;;;;;;22.08;8.68;;;11.60;99.90;;;;;;5032055;28;20079;-63
2022/05/22 01:47:44;;;;;;;24.70;10.00;;;11.60;99.90;;;;;;5038353;28;20028;-63
2022/05/22 01:50:11;;;;;;;21.35;8.68;;;11.70;99.90;;;;;;5051396;28;20025;-66
2022/05/22 01:52:37;;;;;;;21.70;8.77;;;11.70;99.90;;;;;;5049980;28;20030;-62
2022/05/22 01:55:04;;;;;;;30.85;9.23;;;11.70;99.90;;;;;;5050592;28;20025;-63
2022/05/22 01:57:30;;;;;;;24.77;8.98;;;11.70;99.90;;;;;;5049524;28;20104;-65
2022/05/22 01:59:55;;;;;;;23.13;8.35;;;11.70;99.90;;;;;;5031885;28;20411;-65
2022/05/22 02:02:21;;;;;;;28.75;8.85;;;11.60;99.90;;;;;;5031731;28;20083;-63
2022/05/22 02:04:47;;;;;;;25.80;7.75;;;11.60;99.90;;;;;;5035648;28;20088;-63
2022/05/22 02:09:57;;;;;;;24.67;7.88;;;11.60;99.90;;;;;;5031842;28;20036;-63
2022/05/22 02:12:22;;;;;;;26.00;9.23;;;11.50;99.90;;;;;;5040641;28;20459;-67
2022/05/22 02:14:48;;;;;;;24.25;9.02;;;11.50;99.90;;;;;;5050336;28;20029;-62
2022/05/22 02:17:13;;;;;;;24.45;8.88;;;11.50;99.90;;;;;;5037662;28;20100;-62
2022/05/22 02:19:39;;;;;;;23.00;9.15;;;11.50;99.90;;;;;;5035276;28;20021;-62
2022/05/22 02:22:04;;;;;;;25.20;7.68;;;11.40;99.90;;;;;;5047112;28;20025;-63
2022/05/22 02:24:30;;;;;;;26.13;8.68;;;11.40;99.90;;;;;;5041985;28;20390;-63
2022/05/22 02:26:56;;;;;;;22.60;8.63;;;11.30;99.90;;;;;;5035573;28;20052;-63
2022/05/22 02:29:21;;;;;;;23.17;8.65;;;11.30;99.90;;;;;;5035524;28;20034;-64
2022/05/22 02:31:47;;;;;;;26.85;9.55;;;11.20;99.90;;;;;;5053093;28;20053;-64
2022/05/22 02:34:13;;;;;;;31.70;10.07;;;11.20;99.90;;;;;;5053496;28;20025;-66
2022/05/22 02:36:39;;;;;;;22.17;9.30;;;11.20;99.90;;;;;;5055035;28;20044;-63
2022/05/22 02:39:05;;;;;;;23.30;8.40;;;11.20;99.90;;;;;;5037160;28;20096;-63
2022/05/22 02:41:30;;;;;;;26.38;7.88;;;11.20;99.90;;;;;;5035073;28;20069;-67
2022/05/22 02:43:56;;;;;;;21.60;8.05;;;11.10;99.90;;;;;;5041216;28;20037;-62
2022/05/22 02:46:24;;;;;;;24.42;8.93;;;11.00;99.90;;;;;;5054538;28;20472;-64
2022/05/22 02:48:49;;;;;;;29.30;8.68;;;11.00;99.90;;;;;;5047835;28;20021;-62
2022/05/22 02:51:18;;;;;;;23.92;8.63;;;11.00;99.90;;;;;;5034710;28;20044;-62
2022/05/22 02:53:44;;;;;;;25.60;9.45;;;11.00;99.90;;;;;;5034614;28;20082;-62
2022/05/22 02:56:14;;;;;;;26.15;9.43;;;10.90;99.90;;;;;;5051388;28;20414;-62
2022/05/22 02:58:40;;;;;;;24.55;8.95;;;10.90;99.90;;;;;;5052372;28;20075;-63
2022/05/22 03:01:05;;;;;;;22.65;8.82;;;10.90;99.90;;;;;;5045813;28;20021;-63
2022/05/22 03:03:31;;;;;;;25.98;9.52;;;11.00;99.90;;;;;;5056516;28;20052;-63
2022/05/22 03:08:41;;;;;;;30.10;9.80;;;11.00;99.90;;;;;;5054405;28;20060;-62
2022/05/22 03:11:07;;;;;;;29.10;9.90;;;11.00;99.90;;;;;;5054464;28;20060;-62
2022/05/22 03:13:34;;;;;;;30.08;9.77;;;11.10;99.90;;;;;;5052814;28;20040;-64
2022/05/22 03:15:59;;;;;;;32.83;10.32;;;11.10;99.90;;;;;;5054386;28;20025;-63
2022/05/22 03:18:25;;;;;;;30.40;10.13;;;11.10;99.90;;;;;;5053732;28;20049;-63
2022/05/22 03:20:51;;;;;;;27.92;9.68;;;11.10;99.90;;;;;;5054601;28;20175;-62
2022/05/22 03:23:17;;;;;;;29.58;9.93;;;11.10;99.90;;;;;;5050049;28;20025;-63
2022/05/22 03:25:44;;;;;;;30.60;10.75;;;11.10;99.90;;;;;;5052697;28;20417;-62
2022/05/22 03:28:10;;;;;;;28.27;9.73;;;11.10;99.90;;;;;;5049765;28;20098;-62
2022/05/22 03:30:36;;;;;;;28.95;9.95;;;11.10;99.90;;;;;;5045794;28;20124;-63
2022/05/22 03:33:01;;;;;;;29.08;10.25;;;11.10;99.90;;;;;;5050384;28;20082;-62
2022/05/22 03:35:27;;;;;;;29.75;10.05;;;11.10;99.90;;;;;;5054127;28;20075;-62
2022/05/22 03:37:53;;;;;;;36.45;10.95;;;11.10;99.90;;;;;;5056844;28;20027;-62
2022/05/22 03:40:19;;;;;;;28.75;10.80;;;11.10;99.90;;;;;;5054147;28;20029;-65
2022/05/22 03:42:44;;;;;;;28.08;10.98;;;11.20;99.90;;;;;;5058055;28;20021;-62
2022/05/22 03:45:11;;;;;;;32.45;11.40;;;11.20;99.90;;;;;;5055893;28;20108;-63
2022/05/22 03:47:38;;;;;;;27.38;10.32;;;11.20;99.90;;;;;;5057020;28;20025;-63
2022/05/22 03:50:06;;;;;;;31.25;10.73;;;11.20;99.90;;;;;;5069553;28;20016;-68
2022/05/22 03:52:33;;;;;;;32.00;10.20;;;11.30;99.90;;;;;;5059109;28;20029;-66
2022/05/22 03:54:59;;;;;;;33.53;10.65;;;11.30;99.90;;;;;;5051502;28;20059;-64
2022/05/22 03:57:24;;;;;;;30.40;10.85;;;11.30;99.90;;;;;;5061332;28;20453;-63
2022/05/22 03:59:50;;;;;;;26.45;10.57;;;11.40;99.90;;;;;;5064443;28;20051;-66
2022/05/22 04:02:16;;;;;;;33.53;9.88;;;11.40;99.90;;;;;;5058413;28;20028;-62
2022/05/22 04:04:42;;;;;;;31.95;9.82;;;11.40;99.90;;;;;;5065585;28;20044;-62
2022/05/22 04:07:07;;;;;;;31.23;10.05;;;11.40;99.90;;;;;;5058507;28;20034;-62
2022/05/22 04:09:33;;;;;;;32.20;9.30;;;11.40;99.90;;;;;;5049541;28;20469;-63
2022/05/22 04:11:58;;;;;;;31.63;10.45;;;11.40;99.90;;;;;;5047388;28;20076;-64
2022/05/22 04:14:25;;;;;;;24.88;9.35;;;11.40;99.90;;;;;;5047597;28;20021;-62
2022/05/22 04:16:50;;;;;;;26.05;9.75;;;11.40;99.90;;;;;;5048119;28;20032;-63
2022/05/22 04:19:16;;;;;;;28.58;9.25;;;11.50;99.90;;;;;;5048535;28;20033;-65
2022/05/22 04:21:42;;;;;;;25.38;8.85;;;11.50;99.90;;;;;;5051029;28;20040;-63
2022/05/22 04:26:52;;;;;;;22.15;8.43;;;11.50;99.90;;;;;;5052758;28;20039;-63
2022/05/22 04:29:18;;;;;;;24.52;8.57;;;11.50;99.90;;;;;;5048499;28;21602;-62
2022/05/22 04:31:43;;;;;;;25.48;8.82;;;11.50;99.90;;;;;;5047795;28;20106;-63
2022/05/22 04:34:09;;;;;;;25.13;9.45;;;11.50;99.90;;;;;;5045695;28;20063;-63
2022/05/22 04:36:35;;;;;;;26.42;9.43;;;11.50;99.90;;;;;;5046842;28;20061;-63
2022/05/22 04:39:00;;;;;;;26.70;9.45;;;11.50;99.90;;;;;;5046861;28;20025;-64
2022/05/22 04:41:26;;;;;;;29.67;9.63;;;11.60;99.90;;;;;;5045279;28;20423;-63
2022/05/22 04:43:52;;;;;;;26.33;9.45;;;11.70;99.90;;;;;;5046788;28;20388;-63
2022/05/22 04:46:17;;;;;;;29.38;9.77;;;11.70;99.90;;;;;;5055666;28;20037;-64
2022/05/22 04:48:43;;;;;;;23.80;9.30;;;11.80;99.90;;;;;;5055910;28;20071;-63
2022/05/22 04:51:08;;;;;;;21.48;9.10;;;11.90;99.90;;;;;;5050402;28;20033;-63
2022/05/22 04:53:34;;;;;;;28.05;8.73;;;12.00;99.90;;;;;;5044815;28;20174;-62
2022/05/22 04:56:00;;;;;;;22.90;7.80;;;12.10;99.90;;;;;;5048867;28;20477;-62
2022/05/22 04:58:25;;;;;;;22.92;8.55;;;12.10;99.90;;;;;;5045828;28;20119;-62
2022/05/22 05:00:51;;;;;;;23.60;8.13;;;12.20;99.90;;;;;;5047929;28;20025;-63
2022/05/22 05:03:18;;;;;;;22.98;8.75;;;12.30;99.90;;;;;;5049606;28;20025;-63
2022/05/22 05:05:52;;;;;;;20.45;8.57;;;12.40;99.90;;;;;;5052136;28;20431;-63
2022/05/22 05:08:17;;;;;;;22.95;8.63;;;12.50;99.90;;;;;;5051372;28;20025;-64
2022/05/22 05:10:44;;;;;;;23.48;8.57;;;12.60;99.90;;;;;;5052529;28;20086;-62
2022/05/22 05:13:10;;;;;;;23.90;8.02;;;12.70;99.90;;;;;;5051943;28;20081;-62
2022/05/22 05:15:36;;;;;;;20.15;7.50;;;12.70;99.90;;;;;;5050589;28;20059;-62
2022/05/22 05:18:01;;;;;;;19.08;6.97;;;12.90;99.90;;;;;;5051094;28;20044;-61
2022/05/22 05:20:28;;;;;;;21.52;6.65;;;13.00;99.90;;;;;;5049659;28;20033;-62
2022/05/22 05:22:53;;;;;;;17.73;7.50;;;13.10;99.90;;;;;;5047694;28;20108;-62
2022/05/22 05:25:19;;;;;;;24.20;7.68;;;13.20;99.90;;;;;;5050218;28;20533;-63
2022/05/22 05:27:45;;;;;;;23.50;7.65;;;13.40;99.90;;;;;;5052087;28;20497;-62
2022/05/22 05:30:12;;;;;;;18.58;7.38;;;13.50;99.90;;;;;;5051556;28;20055;-63
2022/05/22 05:32:38;;;;;;;23.02;6.88;;;13.70;99.90;;;;;;5052186;28;20025;-63
2022/05/22 05:35:07;;;;;;;20.08;8.07;;;13.90;99.90;;;;;;5050967;28;20370;-63
2022/05/22 05:37:34;;;;;;;17.67;7.45;;;14.00;99.90;;;;;;5051541;28;20029;-62
2022/05/22 05:39:59;;;;;;;23.88;8.85;;;14.30;99.90;;;;;;5050680;28;20108;-63
2022/05/22 05:42:31;;;;;;;20.95;7.50;;;14.50;99.90;;;;;;5052268;28;20056;-63
2022/05/22 05:44:57;;;;;;;19.50;7.47;;;14.80;99.90;;;;;;5048284;28;20043;-62
2022/05/22 05:47:22;;;;;;;23.20;7.22;;;15.10;99.90;;;;;;5051436;28;20025;-62
2022/05/22 05:49:48;;;;;;;15.60;6.30;;;15.60;99.90;;;;;;5051387;28;20037;-62
2022/05/22 05:52:15;;;;;;;14.20;5.03;;;16.20;99.90;;;;;;5052171;28;20032;-62
2022/05/22 05:54:41;;;;;;;12.55;4.82;;;16.90;99.90;;;;;;5056088;28;20079;-63
2022/05/22 05:57:06;;;;;;;14.68;5.95;;;17.70;99.90;;;;;;5055434;28;20108;-62
2022/05/22 05:59:33;;;;;;;16.63;5.88;;;18.40;99.90;;;;;;5055502;28;20031;-62
2022/05/22 06:02:00;;;;;;;15.73;4.78;;;19.20;99.90;;;;;;5053925;28;20025;-63
2022/05/22 06:04:25;;;;;;;11.52;4.22;;;19.90;99.90;;;;;;5055683;28;20158;-63
2022/05/22 06:06:51;;;;;;;18.35;4.57;;;20.70;99.90;;;;;;5055345;28;20108;-63
2022/05/22 06:09:17;;;;;;;14.90;4.90;;;21.30;99.90;;;;;;5055086;28;20071;-62
2022/05/22 06:11:43;;;;;;;11.75;4.32;;;22.00;99.90;;;;;;5056010;28;20410;-63
2022/05/22 06:14:09;;;;;;;12.27;5.13;;;22.70;99.90;;;;;;5055356;28;20137;-63
2022/05/22 06:16:34;;;;;;;15.88;4.30;;;23.30;99.90;;;;;;5055592;28;20163;-63
2022/05/22 06:19:00;;;;;;;9.57;3.42;;;23.90;98.90;;;;;;5054622;28;20036;-63
2022/05/22 06:21:26;;;;;;;10.93;3.40;;;24.20;96.80;;;;;;5054579;28;20033;-63
2022/05/22 06:23:51;;;;;;;12.23;3.55;;;24.50;96.40;;;;;;5055111;28;20037;-63
2022/05/22 06:26:18;;;;;;;9.23;3.30;;;24.90;96.00;;;;;;5055074;28;20095;-63
2022/05/22 06:28:45;;;;;;;9.80;3.28;;;25.50;95.50;;;;;;5054536;28;20059;-63
2022/05/22 06:31:11;;;;;;;7.03;2.80;;;26.10;94.70;;;;;;5048627;28;20059;-63
2022/05/22 06:33:37;;;;;;;8.45;2.25;;;26.60;91.70;;;;;;5054823;28;20048;-64
2022/05/22 06:36:11;;;;;;;8.85;3.05;;;26.80;90.80;;;;;;5054824;28;20021;-63
2022/05/22 06:41:22;;;;;;;14.40;4.47;;;27.10;89.90;;;;;;5054936;28;20028;-63
2022/05/22 06:43:51;;;;;;;12.10;3.17;;;27.60;88.20;;;;;;5054827;28;20044;-63
2022/05/22 06:46:25;;;;;;;9.02;3.58;;;27.90;86.40;;;;;;5053668;28;20031;-62
2022/05/22 06:48:51;;;;;;;6.80;2.42;;;27.90;83.40;;;;;;5054308;28;20075;-64
2022/05/22 06:51:17;;;;;;;6.13;2.17;;;27.80;82.90;;;;;;5054861;28;20021;-64
2022/05/22 06:53:42;;;;;;;8.70;2.10;;;27.90;82.70;;;;;;5054646;28;20024;-66
2022/05/22 06:56:08;;;;;;;12.20;2.95;;;28.00;81.30;;;;;;5055074;28;20404;-64
2022/05/22 06:58:34;;;;;;;10.75;2.85;;;28.10;81.20;;;;;;5053098;28;20079;-66
2022/05/22 07:00:59;;;;;;;7.88;2.15;;;27.90;79.90;;;;;;5054065;28;20032;-66
2022/05/22 07:03:25;;;;;;;6.03;1.90;;;27.30;80.30;;;;;;5054867;28;20442;-66
2022/05/22 07:05:51;;;;;;;5.18;2.03;;;27.10;80.70;;;;;;5054540;28;20031;-64
2022/05/22 07:08:16;;;;;;;5.18;1.90;;;26.80;80.80;;;;;;5053412;28;20476;-62
2022/05/22 07:13:26;;;;;;;9.68;3.00;;;25.60;81.90;;;;;;5053762;28;20496;-63
2022/05/22 07:16:04;;;;;;;6.85;2.42;;;25.20;82.90;;;;;;5052310;28;20029;-68
2022/05/22 07:18:29;;;;;;;11.25;2.50;;;24.80;84.50;;;;;;5036021;28;20470;-66
2022/05/22 07:20:56;;;;;;;12.55;2.97;;;24.70;85.70;;;;;;5053792;28;20074;-65
2022/05/22 07:23:22;;;;;;;11.10;2.65;;;24.80;85.50;;;;;;5048316;28;20017;-65
2022/05/22 07:25:47;;;;;;;9.15;2.67;;;24.70;86.20;;;;;;5045464;28;20040;-63
2022/05/22 07:28:14;;;;;;;11.23;3.25;;;24.70;86.90;;;;;;5046480;28;20082;-62
2022/05/22 07:30:39;;;;;;;10.98;3.22;;;24.70;86.90;;;;;;5049226;28;20067;-63
2022/05/22 07:33:05;;;;;;;7.65;2.08;;;24.50;88.10;;;;;;5053315;28;20381;-63
2022/05/22 07:35:31;;;;;;;5.85;2.30;;;24.30;87.60;;;;;;5053075;28;20356;-63
2022/05/22 07:37:56;;;;;;;6.30;2.30;;;23.90;89.00;;;;;;5052979;28;20448;-62
2022/05/22 07:40:22;;;;;;;9.00;2.50;;;23.70;89.20;;;;;;5052730;28;20028;-62
2022/05/22 07:42:48;;;;;;;9.40;3.00;;;23.20;90.70;;;;;;5052894;28;20096;-62
2022/05/22 07:45:15;;;;;;;11.65;3.08;;;22.90;91.00;;;;;;5053191;28;20377;-62
2022/05/22 07:47:41;;;;;;;10.27;2.85;;;22.80;91.50;;;;;;5055642;28;20085;-63
2022/05/22 07:50:22;;;;;;;12.65;3.33;;;22.80;91.30;;;;;;5071597;28;20029;-63
2022/05/22 07:52:49;;;;;;;9.60;2.92;;;22.60;91.60;;;;;;5053062;28;20048;-63
2022/05/22 07:55:17;;;;;;;10.90;3.17;;;22.60;91.60;;;;;;5052516;28;20436;-63
2022/05/22 07:57:43;;;;;;;11.48;3.65;;;22.60;92.10;;;;;;5052032;28;20021;-63
2022/05/22 08:00:11;;;;;;;10.95;3.45;;;22.60;92.60;;;;;;5051958;28;20523;-62
2022/05/22 08:02:37;;;;;;;9.95;2.95;;;22.90;92.60;;;;;;5052157;28;20052;-63
2022/05/22 08:05:04;;;;;;;7.97;2.60;;;23.30;92.30;;;;;;5052416;28;20065;-63
2022/05/22 08:07:30;;;;;;;8.68;2.92;;;23.90;91.40;;;;;;5052640;28;20017;-63
2022/05/22 08:09:56;;;;;;;7.93;2.83;;;24.50;90.50;;;;;;5052275;28;20070;-63
2022/05/22 08:12:21;;;;;;;9.88;2.50;;;25.10;90.20;;;;;;5052293;28;20404;-63
2022/05/22 08:14:48;;;;;;;8.00;2.55;;;25.60;87.60;;;;;;5052187;28;20032;-63
2022/05/22 08:17:15;;;;;;;9.45;2.88;;;25.90;86.10;;;;;;5052192;28;20025;-63
2022/05/22 08:19:41;;;;;;;10.38;3.50;;;26.40;85.90;;;;;;5051856;28;20123;-62
2022/05/22 08:22:07;;;;;;;8.18;2.80;;;27.10;84.70;;;;;;5051656;28;20372;-63
2022/05/22 08:24:32;;;;;;;7.53;2.42;;;28.30;82.70;;;;;;5052068;28;20120;-63
2022/05/22 08:26:58;;;;;;;8.00;2.22;;;29.70;79.60;;;;;;5051919;28;20424;-61
2022/05/22 08:29:24;;;;;;;7.35;2.35;;;30.80;75.60;;;;;;5051996;28;20029;-62
2022/05/22 08:31:49;;;;;;;9.15;2.30;;;31.60;72.70;;;;;;5051569;28;20077;-63
2022/05/22 08:34:15;;;;;;;6.95;2.13;;;32.30;69.60;;;;;;5052632;28;20467;-62
2022/05/22 08:36:41;;;;;;;8.30;2.55;;;32.90;67.50;;;;;;5051839;28;20104;-67
2022/05/22 08:39:06;;;;;;;7.72;2.33;;;33.40;66.60;;;;;;5052461;28;20031;-64
2022/05/22 08:41:43;;;;;;;8.50;2.58;;;33.90;63.90;;;;;;5052539;28;20350;-63
2022/05/22 08:44:11;;;;;;;7.50;2.72;;;34.30;62.50;;;;;;5052575;28;20098;-64
2022/05/22 08:46:55;;;;;;;8.25;2.42;;;34.40;62.00;;;;;;5047526;28;20404;-65
2022/05/22 08:49:23;;;;;;;8.75;2.50;;;34.50;61.90;;;;;;5051779;28;20028;-66
2022/05/22 08:51:56;;;;;;;9.52;2.40;;;34.50;60.70;;;;;;5051683;28;20021;-65
2022/05/22 08:54:25;;;;;;;5.85;1.77;;;34.60;59.40;;;;;;5051877;28;20059;-65
2022/05/22 08:59:39;;;;;;;5.55;2.08;;;34.60;57.10;;;;;;5042775;28;20456;-66
2022/05/22 09:02:22;;;;;;;7.30;2.50;;;34.70;56.30;;;;;;5052066;28;20016;-64
2022/05/22 09:05:08;;;;;;;7.90;2.10;;;34.90;56.40;;;;;;5052216;28;20032;-64
2022/05/22 09:07:52;;;;;;;8.05;2.60;;;34.90;55.40;;;;;;5051441;28;20031;-66
2022/05/22 09:10:29;;;;;;;8.10;2.80;;;35.00;55.90;;;;;;5052290;28;20024;-65
2022/05/22 09:13:21;;;;;;;8.38;2.63;;;35.30;56.20;;;;;;5052185;28;20017;-64
2022/05/22 09:16:02;;;;;;;8.05;2.08;;;36.00;55.60;;;;;;5052278;28;20083;-65
2022/05/22 09:19:07;;;;;;;8.77;2.45;;;36.60;53.70;;;;;;5051468;28;20029;-64
2022/05/22 09:22:12;;;;;;;4.93;1.75;;;37.10;52.70;;;;;;5051244;28;20043;-63
2022/05/22 09:25:07;;;;;;;5.78;2.38;;;37.30;51.00;;;;;;5049965;28;20491;-63
2022/05/22 09:27:53;;;;;;;9.65;2.42;;;37.30;50.00;;;;;;5052253;28;20021;-63
2022/05/22 09:30:28;;;;;;;5.53;2.15;;;37.50;49.10;;;;;;5055800;28;20457;-67
2022/05/22 09:33:17;;;;;;;11.48;3.03;;;37.90;49.80;;;;;;5055227;28;20036;-63
2022/05/22 09:36:11;;;;;;;7.13;2.00;;;38.30;49.90;;;;;;5056876;28;20376;-64
2022/05/22 09:38:55;;;;;;;6.70;2.05;;;38.60;48.00;;;;;;5056141;28;20476;-66
2022/05/22 09:41:36;;;;;;;6.13;1.80;;;38.70;47.00;;;;;;5055576;28;20070;-65
2022/05/22 09:44:01;;;;;;;11.40;2.35;;;38.50;46.60;;;;;;5055965;28;20033;-64
2022/05/22 09:46:48;;;;;;;4.32;1.88;;;38.40;46.70;;;;;;5054491;28;20380;-63
2022/05/22 09:49:32;;;;;;;8.57;2.17;;;38.10;45.10;;;;;;5056317;28;20516;-65
2022/05/22 09:52:09;;;;;;;10.55;1.90;;;37.70;46.40;;;;;;5055235;28;20039;-65
2022/05/22 09:54:40;;;;;;;5.97;1.67;;;37.90;46.30;;;;;;5054734;28;20053;-63
2022/05/22 09:57:06;;;;;;;6.63;1.90;;;38.20;44.90;;;;;;5055792;28;20100;-66
2022/05/22 10:00:01;;;;;;;7.55;2.35;;;37.90;45.50;;;;;;5055553;28;20105;-63
2022/05/22 10:02:45;;;;;;;7.45;2.30;;;38.10;45.70;;;;;;5051612;28;20051;-64
2022/05/22 10:05:37;;;;;;;5.50;2.33;;;38.00;46.00;;;;;;5055758;28;20044;-66
2022/05/22 10:08:28;;;;;;;8.88;2.72;;;37.80;47.00;;;;;;5055489;28;20083;-64
2022/05/22 10:11:07;;;;;;;8.55;2.20;;;37.50;46.00;;;;;;5034829;28;20029;-66
2022/05/22 10:13:41;;;;;;;7.65;1.65;;;37.10;46.00;;;;;;5041762;28;20025;-65
2022/05/22 10:16:28;;;;;;;7.10;1.65;;;37.10;44.80;;;;;;5055731;28;20021;-62
2022/05/22 10:19:32;;;;;;;5.93;1.92;;;36.90;45.00;;;;;;5054698;28;20029;-63
2022/05/22 10:22:18;;;;;;;5.88;2.30;;;37.00;45.30;;;;;;5035806;28;20037;-67
2022/05/22 10:25:04;;;;;;;6.22;1.90;;;37.40;45.30;;;;;;5049408;28;20424;-61
2022/05/22 10:27:51;;;;;;;8.50;2.30;;;37.20;44.90;;;;;;5035461;28;20025;-62
2022/05/22 10:30:28;;;;;;;5.60;1.88;;;36.50;45.40;;;;;;5049865;28;20056;-61
2022/05/22 10:33:13;;;;;;;8.35;1.73;;;35.70;45.20;;;;;;5050132;28;20025;-62
2022/05/22 10:35:47;;;;;;;5.05;1.73;;;34.90;46.10;;;;;;5042606;28;20049;-67
2022/05/22 10:38:21;;;;;;;6.85;2.03;;;34.60;46.20;;;;;;5053008;28;20025;-64
2022/05/22 10:43:36;;;;;;;9.98;2.20;;;35.40;47.00;;;;;;5052607;28;20075;-62
2022/05/22 10:46:03;;;;;;;8.65;2.53;;;35.60;47.00;;;;;;5051759;28;20043;-61
2022/05/22 10:48:31;;;;;;;8.43;2.35;;;35.90;47.40;;;;;;5053124;28;20099;-62
2022/05/22 10:51:09;;;;;;;8.95;2.88;;;35.90;46.70;;;;;;5052130;28;20021;-62
2022/05/22 10:53:38;;;;;;;9.73;2.97;;;35.40;46.60;;;;;;5053020;28;20072;-61
2022/05/22 10:56:15;;;;;;;6.45;2.35;;;34.80;47.10;;;;;;5054142;28;20025;-62
2022/05/22 10:58:52;;;;;;;6.18;1.92;;;34.50;46.60;;;;;;5049582;28;20024;-64
2022/05/22 11:01:21;;;;;;;8.70;2.28;;;34.40;46.40;;;;;;5050800;28;20036;-62
2022/05/22 11:03:47;;;;;;;9.80;2.45;;;34.90;47.10;;;;;;5052429;28;20116;-61
2022/05/22 11:06:22;;;;;;;8.38;2.13;;;35.50;46.60;;;;;;5052224;28;20021;-66
2022/05/22 11:08:57;;;;;;;7.13;2.30;;;35.90;45.60;;;;;;5049239;28;20035;-64
2022/05/22 11:11:28;;;;;;;7.03;2.15;;;35.90;45.40;;;;;;5053183;28;20546;-62
2022/05/22 11:14:09;;;;;;;5.35;1.85;;;35.60;46.60;;;;;;5051000;28;20449;-62
2022/05/22 11:16:36;;;;;;;6.32;1.92;;;36.10;46.00;;;;;;5051415;28;20096;-67
2022/05/22 11:19:25;;;;;;;7.80;2.50;;;36.60;45.50;;;;;;5052848;28;20040;-64
2022/05/22 11:22:12;;;;;;;7.38;1.90;;;36.70;44.70;;;;;;5050932;28;20027;-62
2022/05/22 11:25:01;;;;;;;8.40;1.92;;;36.70;44.70;;;;;;5051763;28;20048;-63
2022/05/22 11:27:39;;;;;;;7.78;2.50;;;36.80;43.90;;;;;;5048611;28;20112;-65
2022/05/22 11:30:39;;;;;;;9.95;2.25;;;37.10;44.40;;;;;;5052420;28;20053;-62
2022/05/22 11:33:17;;;;;;;10.18;2.95;;;36.70;44.40;;;;;;5037754;28;20377;-62
2022/05/22 11:35:56;;;;;;;10.45;2.33;;;36.30;45.10;;;;;;5052620;28;20063;-62
2022/05/22 11:38:24;;;;;;;8.15;2.60;;;36.10;44.40;;;;;;5051642;28;20028;-62
2022/05/22 11:40:56;;;;;;;9.40;3.13;;;35.50;44.70;;;;;;5050341;28;20404;-62
2022/05/22 11:43:56;;;;;;;6.35;2.35;;;34.50;45.70;;;;;;5052416;28;20112;-62
2022/05/22 11:46:40;;;;;;;9.35;2.40;;;34.40;46.40;;;;;;5049051;28;20489;-66
2022/05/22 11:49:11;;;;;;;9.05;3.28;;;35.00;45.00;;;;;;5052146;28;20035;-62
2022/05/22 11:52:13;;;;;;;6.60;2.53;;;35.20;46.00;;;;;;5051368;28;20082;-62
2022/05/22 11:55:29;;;;;;;8.52;2.90;;;35.90;45.20;;;;;;5050022;28;20037;-62
2022/05/22 11:58:20;;;;;;;18.90;15.57;;;35.70;45.00;;;;;;5050826;28;20403;-63
2022/05/22 12:00:57;;;;;;;5.70;2.58;;;35.90;45.20;;;;;;5051751;28;20020;-65
2022/05/22 12:03:47;;;;;;;7.68;2.08;;;36.20;45.30;;;;;;5050416;28;20040;-63
2022/05/22 12:06:31;;;;;;;10.63;3.78;;;36.40;44.50;;;;;;5050745;28;20033;-63
2022/05/22 12:08:56;;;;;;;9.27;3.05;;;35.80;44.90;;;;;;5046698;28;20095;-62
2022/05/22 12:11:48;;;;;;;16.65;8.05;;;35.10;45.50;;;;;;5051647;28;20144;-62
2022/05/22 12:14:30;;;;;;;28.52;20.13;;;34.80;45.90;;;;;;5050564;28;20125;-61
2022/05/22 12:17:04;;;;;;;12.95;4.80;;;34.10;46.90;;;;;;5050261;28;20036;-65
2022/05/22 12:19:39;;;;;;;6.03;2.58;;;33.50;47.20;;;;;;5049242;28;20039;-62
2022/05/22 12:22:20;;;;;;;9.18;3.65;;;33.70;47.30;;;;;;5051591;28;20067;-62
2022/05/22 12:25:01;;;;;;;10.88;2.65;;;33.60;47.20;;;;;;5051467;28;20033;-65
2022/05/22 12:27:30;;;;;;;9.98;2.72;;;34.00;47.00;;;;;;5051671;28;20100;-62
2022/05/22 12:30:19;;;;;;;7.10;2.45;;;34.30;46.40;;;;;;5051344;28;20013;-63
2022/05/22 12:33:06;;;;;;;9.15;2.85;;;34.80;46.00;;;;;;5051253;28;20056;-65
2022/05/22 12:35:32;;;;;;;7.85;2.55;;;35.00;46.60;;;;;;5049659;28;20044;-61
2022/05/22 12:38:12;;;;;;;10.63;4.22;;;34.70;46.70;;;;;;5050235;28;20458;-62
2022/05/22 12:40:41;;;;;;;10.45;3.20;;;34.00;47.70;;;;;;5049574;28;20279;-67
2022/05/22 12:43:10;;;;;;;8.73;2.58;;;33.20;47.80;;;;;;5051594;28;20356;-64
2022/05/22 12:45:37;;;;;;;10.77;3.42;;;32.90;47.60;;;;;;5051574;28;20037;-65
2022/05/22 12:48:28;;;;;;;8.70;2.40;;;32.90;48.10;;;;;;5048342;28;20048;-62
2022/05/22 12:51:17;;;;;;;9.27;2.67;;;32.90;48.90;;;;;;5047873;28;20029;-67
2022/05/22 12:53:46;;;;;;;7.68;2.60;;;32.90;48.80;;;;;;5049442;28;20021;-62
2022/05/22 12:56:41;;;;;;;11.32;3.95;;;32.70;48.40;;;;;;5051800;28;20025;-61
2022/05/22 12:59:26;;;;;;;10.02;2.88;;;32.40;48.80;;;;;;5051699;28;20017;-66
2022/05/22 13:01:54;;;;;;;7.72;2.83;;;32.20;50.10;;;;;;5050274;28;20019;-61
2022/05/22 13:04:30;;;;;;;6.53;2.60;;;32.00;49.60;;;;;;5048504;28;20467;-61
2022/05/22 13:07:07;;;;;;;8.50;2.83;;;31.80;49.60;;;;;;5049955;28;20020;-61
2022/05/22 13:09:41;;;;;;;13.90;6.60;;;31.60;49.80;;;;;;5052330;28;20036;-60
2022/05/22 13:12:13;;;;;;;9.15;3.70;;;31.30;49.70;;;;;;5048975;28;20045;-65
2022/05/22 13:14:52;;;;;;;6.32;2.75;;;31.00;50.10;;;;;;5048133;28;20031;-63
2022/05/22 13:17:33;;;;;;;9.38;2.78;;;30.60;50.80;;;;;;5049565;28;20096;-62
2022/05/22 13:20:03;;;;;;;9.17;2.77;;;30.30;51.20;;;;;;5048044;28;20435;-62